Time;durP1;ratioP1;P1;durP2;ratioP2;P2;SDS_P1;SDS_P2;PMS_P1;PMS_P2;Temp;Humidity;BMP_temperature;BMP_pressure;BME280_temperature;BME280_humidity;BME280_pressure;Samples;Min_cycle;Max_cycle;Signal;HPM_P1;HPM_P2
2021/04/22 00:01:26;;;;;;;12.70;11.45;;;;;;;9.06;67.02;95370.16;4991595;28;20720;-70
2021/04/22 00:03:51;;;;;;;14.18;12.68;;;;;;;8.92;66.90;95364.00;4991844;28;20045;-71
2021/04/22 00:06:16;;;;;;;13.90;12.48;;;;;;;8.92;66.99;95364.78;4991867;28;20026;-70
2021/04/22 00:08:42;;;;;;;14.45;12.77;;;;;;;8.96;67.00;95371.09;4991454;28;20027;-70
2021/04/22 00:11:08;;;;;;;13.30;12.07;;;;;;;9.01;67.09;95362.28;4993514;28;20026;-70
2021/04/22 00:13:33;;;;;;;13.63;12.23;;;;;;;9.05;66.83;95360.59;5006625;28;20043;-71
2021/04/22 00:16:01;;;;;;;14.35;12.80;;;;;;;8.99;67.13;95370.50;4991743;28;20038;-71
2021/04/22 00:18:26;;;;;;;14.50;13.00;;;;;;;9.12;66.62;95350.44;5006408;28;20034;-70
2021/04/22 00:20:52;;;;;;;20.02;13.27;;;;;;;9.34;65.80;95347.94;4991365;28;20615;-70
2021/04/22 00:23:18;;;;;;;19.88;13.80;;;;;;;9.64;65.55;95359.91;4990987;28;20046;-70
2021/04/22 00:25:44;;;;;;;14.25;12.82;;;;;;;9.76;65.09;95351.47;4992613;28;20456;-70
2021/04/22 00:28:12;;;;;;;13.95;12.45;;;;;;;9.98;64.53;95352.69;4990973;28;20133;-71
2021/04/22 00:30:38;;;;;;;15.77;14.13;;;;;;;10.12;63.86;95346.28;4991392;28;20039;-71
2021/04/22 00:33:12;;;;;;;13.30;11.93;;;;;;;10.22;63.22;95331.22;5006164;28;20566;-70
2021/04/22 00:35:37;;;;;;;15.02;13.52;;;;;;;10.41;62.84;95335.38;4989851;28;20073;-71
2021/04/22 00:38:04;;;;;;;14.68;13.27;;;;;;;10.52;62.17;95335.94;4992797;28;20034;-71
2021/04/22 00:40:30;;;;;;;13.98;12.65;;;;;;;10.61;62.63;95333.38;4991107;28;20137;-71
2021/04/22 00:42:59;;;;;;;15.27;12.13;;;;;;;10.67;61.80;95335.63;4990748;28;20117;-71
2021/04/22 00:45:25;;;;;;;13.63;12.43;;;;;;;10.78;61.45;95327.41;4990914;28;20046;-70
2021/04/22 00:47:51;;;;;;;15.13;13.60;;;;;;;10.81;61.48;95324.19;4990660;28;20402;-71
2021/04/22 00:50:21;;;;;;;16.95;13.20;;;;;;;10.95;61.05;95327.56;5005803;28;20041;-71
2021/04/22 00:52:47;;;;;;;15.57;11.90;;;;;;;10.96;61.32;95323.03;4992625;28;20022;-70
2021/04/22 00:55:13;;;;;;;15.05;13.18;;;;;;;10.99;60.48;95306.47;5005935;28;20713;-71
2021/04/22 00:57:39;;;;;;;14.18;12.77;;;;;;;11.07;60.99;95314.50;4990366;28;20074;-70
2021/04/22 01:00:10;;;;;;;12.98;11.65;;;;;;;11.10;60.28;95315.78;4990838;28;20069;-71
2021/04/22 01:02:37;;;;;;;13.00;11.45;;;;;;;11.10;60.76;95318.44;5005574;28;20212;-72
2021/04/22 01:05:11;;;;;;;13.05;11.35;;;;;;;11.07;60.78;95309.19;4992693;28;20031;-69
2021/04/22 01:07:40;;;;;;;12.95;11.75;;;;;;;11.03;60.80;95304.78;5005765;28;20408;-72
2021/04/22 01:10:07;;;;;;;14.43;13.07;;;;;;;10.98;60.62;95307.56;4990489;28;20085;-70
2021/04/22 01:12:33;;;;;;;13.20;12.02;;;;;;;10.96;60.87;95304.41;4990414;28;20030;-71
2021/04/22 01:14:59;;;;;;;14.15;11.82;;;;;;;10.13;62.60;95315.16;4990693;28;20049;-71
2021/04/22 01:17:25;;;;;;;13.30;11.93;;;;;;;9.64;64.34;95351.16;4990227;28;20022;-71
2021/04/22 01:19:50;;;;;;;14.75;12.05;;;;;;;8.47;69.03;95351.06;4992217;28;20041;-71
2021/04/22 01:22:15;;;;;;;11.55;10.45;;;;;;;8.27;69.75;95361.88;4989879;28;20068;-72
2021/04/22 01:24:41;;;;;;;13.30;12.00;;;;;;;8.43;69.58;95362.50;4990329;28;20128;-69
2021/04/22 01:27:07;;;;;;;13.82;12.10;;;;;;;9.05;67.36;95352.63;4990113;28;20039;-70
2021/04/22 01:29:32;;;;;;;16.40;10.88;;;;;;;9.20;66.81;95362.25;4990192;28;20042;-70
2021/04/22 01:31:58;;;;;;;9.95;8.27;;;;;;;8.51;68.84;95372.50;4991721;28;20056;-72
2021/04/22 01:34:23;;;;;;;11.63;10.45;;;;;;;8.39;70.87;95380.06;4990143;28;20023;-72
2021/04/22 01:36:48;;;;;;;14.38;13.00;;;;;;;8.60;70.95;95373.44;5003690;28;20042;-71
2021/04/22 01:39:14;;;;;;;15.13;13.23;;;;;;;8.47;70.65;95364.31;5004946;28;20168;-71
2021/04/22 01:41:41;;;;;;;11.77;10.57;;;;;;;8.19;70.98;95360.66;4989600;28;20369;-72
2021/04/22 01:44:07;;;;;;;11.82;10.73;;;;;;;8.71;70.84;95374.88;4991842;28;20052;-71
2021/04/22 01:46:33;;;;;;;9.32;8.43;;;;;;;8.67;71.42;95334.09;4990171;28;20053;-71
2021/04/22 01:48:58;;;;;;;9.95;9.05;;;;;;;8.82;73.29;95309.22;4989597;28;20484;-71
2021/04/22 01:51:24;;;;;;;9.05;8.25;;;;;;;8.95;72.64;95308.47;4989221;28;20048;-70
2021/04/22 01:53:50;;;;;;;9.23;8.32;;;;;;;8.96;70.64;95330.50;4989499;28;20031;-71
2021/04/22 01:56:17;;;;;;;9.40;8.50;;;;;;;8.89;69.70;95317.59;4989531;28;20034;-70
2021/04/22 01:58:43;;;;;;;8.55;7.45;;;;;;;9.04;68.66;95329.84;5006240;28;20464;-70
2021/04/22 02:01:09;;;;;;;9.32;8.52;;;;;;;9.18;68.30;95325.38;4989397;28;20137;-70
2021/04/22 02:03:35;;;;;;;10.15;7.75;;;;;;;9.17;67.78;95320.38;4989525;28;20539;-70
2021/04/22 02:06:03;;;;;;;9.52;8.63;;;;;;;9.37;67.50;95326.13;4989253;28;20050;-71
2021/04/22 02:08:29;;;;;;;9.23;8.40;;;;;;;9.52;68.07;95329.59;4987012;28;20026;-71
2021/04/22 02:10:54;;;;;;;10.98;9.88;;;;;;;9.54;68.33;95322.91;4990516;28;20018;-71
2021/04/22 02:13:21;;;;;;;11.45;10.35;;;;;;;9.68;68.40;95338.09;4987798;28;20508;-71
2021/04/22 02:15:48;;;;;;;9.93;9.02;;;;;;;9.70;68.85;95331.41;4989202;28;20041;-71
2021/04/22 02:18:14;;;;;;;10.35;9.45;;;;;;;9.72;69.50;95333.75;4988872;28;20221;-69
2021/04/22 02:20:39;;;;;;;10.25;9.38;;;;;;;9.79;69.81;95332.31;4989195;28;20493;-69
2021/04/22 02:23:12;;;;;;;9.90;8.98;;;;;;;9.96;69.35;95325.63;5006024;28;20036;-70
2021/04/22 02:25:37;;;;;;;10.25;9.25;;;;;;;9.92;68.68;95327.28;4989689;28;20042;-70
2021/04/22 02:28:03;;;;;;;9.73;8.82;;;;;;;9.94;68.30;95322.47;4988868;28;20500;-69
2021/04/22 02:30:31;;;;;;;9.85;8.98;;;;;;;10.01;67.88;95336.16;4988984;28;20081;-70
2021/04/22 02:32:58;;;;;;;11.00;9.95;;;;;;;10.03;68.17;95336.63;4988842;28;20039;-70
2021/04/22 02:35:27;;;;;;;10.93;9.88;;;;;;;9.96;68.06;95326.41;4989021;28;20038;-70
2021/04/22 02:37:53;;;;;;;11.23;10.23;;;;;;;9.84;68.15;95321.59;4990593;28;20503;-72
2021/04/22 02:40:22;;;;;;;12.38;10.52;;;;;;;9.82;68.45;95318.41;4987779;28;20082;-70
2021/04/22 02:42:47;;;;;;;12.43;11.18;;;;;;;9.77;68.98;95337.09;4988728;28;20037;-71
2021/04/22 02:45:22;;;;;;;14.20;12.70;;;;;;;9.63;69.38;95323.81;4987748;28;20034;-70
2021/04/22 02:47:48;;;;;;;13.05;11.80;;;;;;;9.65;69.21;95336.81;4990251;28;20045;-70
2021/04/22 02:50:17;;;;;;;14.18;12.88;;;;;;;9.65;69.96;95339.47;4991760;28;20026;-69
2021/04/22 02:52:43;;;;;;;14.57;12.73;;;;;;;9.69;70.39;95329.84;4993362;28;20018;-70
2021/04/22 02:55:09;;;;;;;13.60;12.30;;;;;;;9.80;70.08;95333.09;4992925;28;20461;-70
2021/04/22 02:57:35;;;;;;;13.15;12.00;;;;;;;9.87;70.15;95315.66;4992710;28;20389;-70
2021/04/22 03:00:00;;;;;;;14.02;12.55;;;;;;;9.99;70.39;95317.06;4992953;28;20030;-70
2021/04/22 03:02:25;;;;;;;13.52;11.68;;;;;;;10.14;69.47;95330.06;4992590;28;20026;-70
2021/04/22 03:04:51;;;;;;;13.50;12.20;;;;;;;10.20;70.04;95344.81;4994740;28;20538;-70
2021/04/22 03:07:16;;;;;;;13.57;11.77;;;;;;;10.26;69.49;95342.88;4992436;28;20057;-70
2021/04/22 03:09:42;;;;;;;14.18;12.77;;;;;;;10.28;69.52;95340.69;4992789;28;20030;-70
2021/04/22 03:12:08;;;;;;;12.95;11.73;;;;;;;10.31;69.17;95340.13;4992473;28;20756;-70
2021/04/22 03:14:35;;;;;;;13.15;11.95;;;;;;;10.39;68.42;95348.19;4992622;28;20082;-70
2021/04/22 03:17:00;;;;;;;13.40;12.13;;;;;;;10.42;68.64;95333.50;4994369;28;20078;-70
2021/04/22 03:19:25;;;;;;;12.65;11.32;;;;;;;10.47;68.22;95343.25;4992663;28;20475;-70
2021/04/22 03:21:51;;;;;;;13.82;12.40;;;;;;;10.51;67.92;95346.91;4992222;28;20045;-70
2021/04/22 03:24:16;;;;;;;12.93;11.82;;;;;;;10.52;67.85;95340.50;4992664;28;20042;-70
2021/04/22 03:26:42;;;;;;;13.55;12.20;;;;;;;10.47;67.77;95335.28;4992293;28;20444;-70
2021/04/22 03:29:07;;;;;;;14.00;12.45;;;;;;;10.23;68.62;95338.13;4994447;28;20073;-70
2021/04/22 03:31:32;;;;;;;12.13;10.93;;;;;;;8.22;76.60;95378.63;4992204;28;20129;-70
2021/04/22 03:33:58;;;;;;;13.25;11.82;;;;;;;8.25;77.74;95393.97;4992364;28;20485;-70
2021/04/22 03:36:24;;;;;;;16.23;12.73;;;;;;;7.88;80.22;95378.72;4992150;28;20602;-70
2021/04/22 03:38:50;;;;;;;16.83;13.82;;;;;;;8.04;79.16;95376.72;4991915;28;20038;-71
2021/04/22 03:41:15;;;;;;;14.93;13.52;;;;;;;7.55;81.35;95370.56;4991989;28;20428;-71
2021/04/22 03:43:40;;;;;;;13.95;12.32;;;;;;;7.45;81.98;95391.84;4993968;28;20033;-71
2021/04/22 03:46:06;;;;;;;17.38;15.38;;;;;;;7.58;82.90;95402.88;5006957;28;20041;-71
2021/04/22 03:48:31;;;;;;;18.80;16.83;;;;;;;7.85;80.53;95384.59;5006719;28;20046;-70
2021/04/22 03:50:56;;;;;;;19.75;17.20;;;;;;;7.80;80.62;95372.19;4991837;28;20138;-71
2021/04/22 03:53:22;;;;;;;22.70;18.20;;;;;;;7.96;80.69;95399.31;4991960;28;20019;-71
2021/04/22 03:55:47;;;;;;;18.23;16.35;;;;;;;7.75;80.94;95396.06;4993825;28;20026;-70
2021/04/22 03:58:13;;;;;;;20.60;17.77;;;;;;;7.84;80.36;95392.81;4991440;28;20607;-70
2021/04/22 04:00:39;;;;;;;21.02;18.00;;;;;;;8.07;79.48;95392.81;4989531;28;20043;-70
2021/04/22 04:03:04;;;;;;;19.00;17.05;;;;;;;7.98;78.45;95383.13;5006452;28;20058;-71
2021/04/22 04:05:30;;;;;;;22.75;19.75;;;;;;;8.10;78.93;95399.44;4990525;28;20026;-72
2021/04/22 04:07:55;;;;;;;25.02;18.52;;;;;;;8.11;78.29;95373.72;4993203;28;20041;-69
2021/04/22 04:10:20;;;;;;;23.13;18.63;;;;;;;8.32;77.53;95383.03;4991599;28;20481;-70
2021/04/22 04:12:46;;;;;;;25.30;19.08;;;;;;;8.41;76.73;95385.88;4991265;28;20045;-70
2021/04/22 04:15:12;;;;;;;28.27;21.40;;;;;;;8.41;76.57;95380.56;4991491;28;20038;-69
2021/04/22 04:17:38;;;;;;;28.40;20.90;;;;;;;8.53;75.94;95388.91;4991132;28;20034;-70
2021/04/22 04:20:09;;;;;;;26.67;20.75;;;;;;;8.55;76.16;95386.78;4993277;28;20082;-71
2021/04/22 04:22:35;;;;;;;24.05;21.10;;;;;;;8.50;76.20;95378.88;4991213;28;20038;-70
2021/04/22 04:25:00;;;;;;;28.77;20.30;;;;;;;8.51;75.87;95372.50;5006337;28;20046;-69
2021/04/22 04:27:26;;;;;;;26.98;20.67;;;;;;;8.58;75.88;95378.22;4991125;28;20133;-69
2021/04/22 04:29:51;;;;;;;33.40;21.27;;;;;;;8.53;75.75;95365.81;4991270;28;20535;-70
2021/04/22 04:32:17;;;;;;;28.58;22.10;;;;;;;8.67;75.83;95384.47;5006022;28;20034;-71
2021/04/22 04:34:42;;;;;;;24.63;20.67;;;;;;;8.66;76.38;95390.06;4993181;28;20030;-70
2021/04/22 04:37:08;;;;;;;25.98;21.20;;;;;;;8.75;75.80;95397.13;4990799;28;20085;-70
2021/04/22 04:39:33;;;;;;;23.38;19.42;;;;;;;8.76;75.90;95397.91;4989333;28;20050;-70
2021/04/22 04:41:59;;;;;;;25.05;20.38;;;;;;;8.90;76.03;95408.56;5005714;28;20117;-70
2021/04/22 04:44:25;;;;;;;24.00;19.83;;;;;;;8.99;75.86;95398.91;4990761;28;20018;-70
2021/04/22 04:46:50;;;;;;;22.00;18.25;;;;;;;9.22;75.39;95399.91;4992462;28;20573;-70
2021/04/22 04:49:15;;;;;;;21.75;19.45;;;;;;;9.48;75.22;95410.94;4990605;28;20042;-70
2021/04/22 04:51:41;;;;;;;23.60;18.38;;;;;;;9.75;74.32;95411.00;4990301;28;20030;-70
2021/04/22 04:54:06;;;;;;;23.48;18.30;;;;;;;9.95;73.03;95412.53;4990707;28;20589;-70
2021/04/22 04:56:32;;;;;;;26.00;18.00;;;;;;;10.13;72.43;95411.69;4989211;28;20065;-70
2021/04/22 04:58:57;;;;;;;19.10;17.10;;;;;;;10.34;72.14;95409.44;4992253;28;20014;-69
2021/04/22 05:01:23;;;;;;;20.95;18.05;;;;;;;10.45;71.56;95409.25;4990273;28;20519;-70
2021/04/22 05:03:48;;;;;;;18.73;16.83;;;;;;;10.61;70.55;95423.81;4990627;28;20121;-70
2021/04/22 05:06:14;;;;;;;18.52;16.65;;;;;;;10.66;69.64;95415.75;4990694;28;20078;-69
2021/04/22 05:08:39;;;;;;;18.15;16.35;;;;;;;10.80;69.20;95431.66;4990222;28;20038;-70
2021/04/22 05:11:05;;;;;;;17.60;15.75;;;;;;;10.80;68.92;95437.81;4992183;28;20041;-69
2021/04/22 05:13:30;;;;;;;17.67;15.88;;;;;;;9.94;70.18;95431.44;4990129;28;20443;-70
2021/04/22 05:15:58;;;;;;;19.02;17.08;;;;;;;9.04;74.81;95457.19;5005391;28;20038;-71
2021/04/22 05:18:23;;;;;;;19.95;17.85;;;;;;;8.63;76.45;95457.72;4990004;28;20060;-70
2021/04/22 05:20:48;;;;;;;19.55;16.83;;;;;;;8.48;76.78;95474.59;4990060;28;20716;-71
2021/04/22 05:23:14;;;;;;;21.85;16.38;;;;;;;8.25;78.05;95472.69;4989962;28;20248;-70
2021/04/22 05:25:40;;;;;;;20.25;17.20;;;;;;;8.45;77.74;95487.63;5006838;28;20436;-70
2021/04/22 05:28:05;;;;;;;18.85;16.38;;;;;;;8.97;75.69;95485.97;4989703;28;20038;-70
2021/04/22 05:30:31;;;;;;;17.98;16.13;;;;;;;8.68;76.10;95480.72;4990162;28;20520;-72
2021/04/22 05:32:56;;;;;;;19.08;17.08;;;;;;;8.41;76.43;95465.41;5004807;28;20046;-73
2021/04/22 05:35:22;;;;;;;18.15;16.35;;;;;;;9.26;74.51;95475.22;4990081;28;20023;-74
2021/04/22 05:37:47;;;;;;;22.25;16.67;;;;;;;9.42;73.26;95481.09;4991574;28;20034;-72
2021/04/22 05:40:13;;;;;;;18.70;16.50;;;;;;;9.42;72.54;95487.22;5004793;28;20054;-71
2021/04/22 05:42:39;;;;;;;17.90;15.93;;;;;;;10.10;71.21;95477.91;4989828;28;20034;-76
2021/04/22 05:45:05;;;;;;;17.65;14.80;;;;;;;10.59;69.48;95495.91;4991300;28;20492;-85
2021/04/22 05:47:31;;;;;;;17.35;15.15;;;;;;;10.37;68.57;95471.88;4990714;28;20093;-72
2021/04/22 05:49:57;;;;;;;17.55;15.70;;;;;;;10.83;67.75;95481.66;5006370;28;20027;-76
2021/04/22 05:52:23;;;;;;;16.25;14.77;;;;;;;11.02;66.78;95478.88;4989703;28;20532;-84
2021/04/22 05:54:48;;;;;;;16.48;14.93;;;;;;;10.84;66.75;95493.88;4990322;28;20114;-72
2021/04/22 05:57:14;;;;;;;16.70;14.70;;;;;;;10.50;67.18;95496.94;4990390;28;20057;-70
2021/04/22 05:59:39;;;;;;;15.35;13.85;;;;;;;10.61;66.55;95451.22;5004720;28;20039;-70
2021/04/22 06:02:04;;;;;;;17.90;14.57;;;;;;;11.22;66.04;95490.97;4991355;28;20460;-75
2021/04/22 06:04:30;;;;;;;16.05;14.65;;;;;;;11.30;65.91;95495.59;4989808;28;20133;-74
2021/04/22 06:06:55;;;;;;;15.90;14.40;;;;;;;10.23;67.70;95502.94;5004197;28;20053;-73
2021/04/22 06:09:20;;;;;;;15.32;13.68;;;;;;;9.49;70.55;95498.25;5004549;28;20069;-75
2021/04/22 06:11:46;;;;;;;17.50;15.70;;;;;;;9.62;70.35;95510.81;5004302;28;20474;-74
2021/04/22 06:14:11;;;;;;;16.08;14.48;;;;;;;9.64;70.15;95486.63;4988241;28;20034;-73
2021/04/22 06:16:37;;;;;;;15.15;13.65;;;;;;;9.67;69.73;95509.94;5002610;28;20460;-74
2021/04/22 06:19:04;;;;;;;14.80;13.50;;;;;;;10.28;67.98;95503.66;5007904;28;20042;-74
2021/04/22 06:21:29;;;;;;;16.50;12.55;;;;;;;10.60;67.04;95497.53;5008026;28;20542;-75
2021/04/22 06:23:56;;;;;;;15.30;13.88;;;;;;;11.17;64.70;95489.22;5007972;28;20050;-74
2021/04/22 06:26:22;;;;;;;14.38;12.98;;;;;;;11.74;63.38;95496.75;5024690;28;20033;-76
2021/04/22 06:28:51;;;;;;;14.75;13.23;;;;;;;10.70;65.32;95507.19;5011254;28;20057;-69
2021/04/22 06:31:17;;;;;;;15.05;12.77;;;;;;;10.75;64.78;95506.28;5006078;28;20041;-70
2021/04/22 06:33:43;;;;;;;15.20;13.80;;;;;;;10.33;67.19;95513.44;5009739;28;20091;-73
2021/04/22 06:36:08;;;;;;;15.80;14.20;;;;;;;10.11;67.51;95522.00;5009842;28;20041;-71
2021/04/22 06:38:34;;;;;;;16.08;14.38;;;;;;;9.93;68.86;95526.31;5008105;28;20037;-72
2021/04/22 06:40:59;;;;;;;16.30;14.82;;;;;;;10.15;68.88;95523.00;5011678;28;20035;-72
2021/04/22 06:43:25;;;;;;;18.35;15.23;;;;;;;10.21;67.55;95511.22;5008335;28;20026;-74
2021/04/22 06:45:50;;;;;;;16.30;14.60;;;;;;;11.34;65.83;95521.31;5009607;28;20134;-72
2021/04/22 06:48:16;;;;;;;15.77;14.18;;;;;;;11.21;63.78;95511.50;5009502;28;20047;-72
2021/04/22 06:50:43;;;;;;;17.02;15.35;;;;;;;11.17;64.00;95510.50;5007794;28;20045;-73
2021/04/22 06:53:09;;;;;;;18.27;15.88;;;;;;;11.34;63.24;95507.22;5011488;28;20034;-73
2021/04/22 06:55:34;;;;;;;18.55;15.95;;;;;;;12.23;61.78;95517.19;5024722;28;20373;-72
2021/04/22 06:58:03;;;;;;;22.40;16.17;;;;;;;11.73;61.34;95525.28;5008568;28;20057;-70
2021/04/22 07:00:32;;;;;;;19.67;16.27;;;;;;;11.42;62.66;95517.97;5013445;28;20049;-79
2021/04/22 07:02:57;;;;;;;18.75;16.73;;;;;;;11.23;63.25;95532.50;5037853;28;20042;-72
2021/04/22 07:05:23;;;;;;;17.48;15.68;;;;;;;10.67;64.30;95527.19;5019215;28;20055;-71
2021/04/22 07:07:48;;;;;;;20.25;18.00;;;;;;;10.48;64.67;95499.06;5011477;28;20514;-71
2021/04/22 07:10:15;;;;;;;22.75;17.58;;;;;;;11.37;62.70;95515.41;5009522;28;20076;-68
2021/04/22 07:12:41;;;;;;;22.73;17.00;;;;;;;11.76;61.48;95534.53;5024540;28;20042;-73
2021/04/22 07:15:08;;;;;;;19.33;16.48;;;;;;;11.17;62.60;95545.91;5024281;28;20522;-71
2021/04/22 07:17:33;;;;;;;20.30;17.20;;;;;;;10.88;63.75;95529.44;5009215;28;20097;-72
2021/04/22 07:20:23;;;;;;;19.98;17.90;;;;;;;11.33;62.70;95526.97;5026895;28;20026;-76
2021/04/22 07:22:48;;;;;;;18.85;16.50;;;;;;;11.68;61.83;95534.19;5010007;28;20050;-77
2021/04/22 07:25:14;;;;;;;18.55;16.73;;;;;;;12.12;60.50;95550.53;5009888;28;20108;-73
2021/04/22 07:27:41;;;;;;;18.50;16.55;;;;;;;11.70;61.11;95523.22;5009691;28;20042;-84
2021/04/22 07:30:07;;;;;;;20.27;16.63;;;;;;;12.29;60.06;95557.88;5009492;28;20092;-69
2021/04/22 07:32:32;;;;;;;17.60;15.80;;;;;;;11.48;60.49;95549.81;5009253;28;20042;-74
2021/04/22 07:34:58;;;;;;;17.77;15.95;;;;;;;11.26;62.11;95554.00;5013650;28;20476;-72
2021/04/22 07:37:23;;;;;;;17.23;15.57;;;;;;;11.18;60.62;95544.03;5012431;28;20038;-73
2021/04/22 07:39:49;;;;;;;18.98;17.10;;;;;;;11.92;59.69;95563.22;5013231;28;20144;-81
2021/04/22 07:42:14;;;;;;;18.33;16.52;;;;;;;12.23;58.53;95565.19;5013287;28;20052;-80
2021/04/22 07:44:40;;;;;;;17.45;15.70;;;;;;;11.50;59.69;95552.97;5013656;28;20080;-84
2021/04/22 07:47:07;;;;;;;16.88;15.25;;;;;;;11.74;59.94;95569.50;5015145;28;20365;-74
2021/04/22 07:49:32;;;;;;;15.48;13.98;;;;;;;11.37;60.79;95584.66;5012834;28;20033;-71
2021/04/22 07:51:58;;;;;;;16.33;14.65;;;;;;;11.52;59.94;95586.22;5012342;28;20034;-75
2021/04/22 07:54:23;;;;;;;19.35;16.85;;;;;;;11.93;59.66;95570.16;5012661;28;20139;-74
2021/04/22 07:56:49;;;;;;;16.23;14.73;;;;;;;11.89;59.39;95563.84;5012615;28;20057;-77
2021/04/22 07:59:14;;;;;;;16.08;14.45;;;;;;;11.58;60.17;95557.59;5013333;28;20033;-68
2021/04/22 08:01:39;;;;;;;18.08;15.20;;;;;;;11.71;60.46;95575.41;5014218;28;20030;-74
2021/04/22 08:04:05;;;;;;;15.18;13.73;;;;;;;11.22;60.32;95539.69;5012662;28;20045;-75
2021/04/22 08:06:32;;;;;;;15.50;13.93;;;;;;;10.95;61.30;95588.38;5012095;28;20070;-74
2021/04/22 08:08:57;;;;;;;15.40;13.77;;;;;;;11.35;60.57;95592.13;5011724;28;20806;-76
2021/04/22 08:11:22;;;;;;;15.52;14.13;;;;;;;12.34;58.24;95587.88;5011958;28;20049;-76
2021/04/22 08:13:48;;;;;;;16.73;14.98;;;;;;;12.21;58.31;95562.84;5027114;23;20041;-62
2021/04/22 08:16:13;;;;;;;16.17;14.50;;;;;;;13.36;56.97;95571.09;5012021;28;20100;-63
2021/04/22 08:18:39;;;;;;;15.73;14.02;;;;;;;12.62;56.36;95601.06;5011837;28;20423;-61
2021/04/22 08:21:05;;;;;;;19.25;17.17;;;;;;;12.84;56.61;95584.22;5010900;28;20041;-62
2021/04/22 08:23:32;;;;;;;20.20;16.35;;;;;;;13.12;55.62;95560.78;5011534;28;20030;-62
2021/04/22 08:26:00;;;;;;;16.17;14.68;;;;;;;14.64;53.14;95571.47;5013707;28;20040;-62
2021/04/22 08:28:27;;;;;;;16.15;14.65;;;;;;;15.62;50.91;95587.63;5026681;28;20049;-63
2021/04/22 08:31:22;;;;;;;17.00;15.32;;;;;;;15.54;48.94;95592.69;5011639;28;20038;-63
2021/04/22 08:33:53;;;;;;;16.33;14.82;;;;;;;14.95;48.63;95602.59;5010333;28;20610;-64
2021/04/22 08:36:20;;;;;;;17.05;15.30;;;;;;;14.46;51.11;95578.72;5011793;28;20054;-63
2021/04/22 08:38:46;;;;;;;17.50;15.73;;;;;;;13.72;52.11;95610.97;5009899;28;20045;-63
2021/04/22 08:41:12;;;;;;;17.88;16.15;;;;;;;13.62;53.26;95587.22;5011367;28;20101;-64
2021/04/22 08:43:38;;;;;;;17.15;15.40;;;;;;;13.14;54.60;95604.78;5013312;28;20018;-63
2021/04/22 08:46:05;;;;;;;17.67;15.90;;;;;;;13.46;54.50;95603.69;5011125;28;20041;-62
2021/04/22 08:48:32;;;;;;;18.15;16.38;;;;;;;12.91;55.50;95612.06;5011304;28;20035;-63
2021/04/22 08:50:58;;;;;;;18.75;16.73;;;;;;;13.01;55.77;95603.00;5010717;28;20708;-63
2021/04/22 08:53:29;;;;;;;20.23;16.02;;;;;;;12.23;56.69;95567.84;5011065;28;20033;-63
2021/04/22 08:55:56;;;;;;;19.25;17.10;;;;;;;13.62;54.02;95604.03;5013289;28;20034;-62
2021/04/22 08:58:21;;;;;;;17.17;15.52;;;;;;;14.11;52.27;95594.00;5010690;28;20073;-62
2021/04/22 09:00:52;;;;;;;18.33;16.42;;;;;;;12.93;56.14;95614.44;5011190;28;20534;-63
2021/04/22 09:03:18;;;;;;;19.48;16.33;;;;;;;12.98;55.77;95585.72;5011135;28;20129;-63
2021/04/22 09:05:44;;;;;;;19.13;16.77;;;;;;;14.31;53.25;95608.63;5010987;28;20117;-64
2021/04/22 09:08:10;;;;;;;19.17;17.17;;;;;;;14.20;53.18;95589.44;5012687;28;20022;-64
2021/04/22 09:10:36;;;;;;;19.02;17.23;;;;;;;14.76;50.63;95613.66;5010970;28;20038;-63
2021/04/22 09:13:04;;;;;;;20.80;17.58;;;;;;;14.04;52.12;95612.41;5009237;28;20395;-66
2021/04/22 09:15:32;;;;;;;18.25;16.48;;;;;;;14.07;51.65;95602.97;5026119;28;20037;-66
2021/04/22 09:18:06;;;;;;;17.55;15.70;;;;;;;14.36;50.65;95608.47;5025428;28;20121;-62
2021/04/22 09:20:39;;;;;;;18.33;16.58;;;;;;;14.48;50.36;95622.03;5008844;28;20113;-63
2021/04/22 09:23:17;;;;;;;18.83;16.77;;;;;;;15.22;49.67;95606.72;5012545;28;20541;-62
2021/04/22 09:25:43;;;;;;;19.08;17.33;;;;;;;15.03;48.34;95586.47;5011037;28;20037;-61
2021/04/22 09:28:09;;;;;;;18.23;16.33;;;;;;;13.27;52.51;95619.97;5010531;28;20067;-61
2021/04/22 09:30:46;;;;;;;20.60;16.35;;;;;;;13.29;53.38;95598.25;5010457;28;20571;-63
2021/04/22 09:33:26;;;;;;;18.88;17.15;;;;;;;13.90;52.54;95607.22;5009213;28;20042;-60
2021/04/22 09:35:53;;;;;;;19.40;17.58;;;;;;;14.46;52.34;95616.19;5009210;28;20041;-64
2021/04/22 09:38:18;;;;;;;18.80;17.08;;;;;;;14.05;53.45;95609.41;5008981;28;20369;-61
2021/04/22 09:40:45;;;;;;;20.42;17.33;;;;;;;13.35;52.58;95481.34;5010830;28;20029;-65
2021/04/22 09:43:15;;;;;;;20.42;18.42;;;;;;;13.84;53.60;95615.69;5009001;28;20121;-64
2021/04/22 09:45:44;;;;;;;20.67;18.48;;;;;;;14.69;52.11;95611.47;5010320;28;20049;-64
2021/04/22 09:48:27;;;;;;;21.20;18.65;;;;;;;14.77;51.24;95612.53;5010322;28;20444;-64
2021/04/22 09:50:53;;;;;;;20.63;18.83;;;;;;;15.15;50.64;95611.78;5024703;28;20030;-65
2021/04/22 09:53:19;;;;;;;19.35;17.58;;;;;;;13.90;53.45;95603.75;5010050;28;20363;-64
2021/04/22 09:55:46;;;;;;;20.27;18.33;;;;;;;13.69;53.64;95592.88;5012094;28;20122;-63
2021/04/22 09:58:22;;;;;;;22.60;17.33;;;;;;;14.00;52.88;95612.25;5009137;28;20473;-64
2021/04/22 10:00:48;;;;;;;20.25;18.38;;;;;;;14.30;51.71;95599.03;5009957;28;20038;-66
2021/04/22 10:03:13;;;;;;;19.02;17.38;;;;;;;14.03;52.15;95600.94;5008477;28;20112;-65
2021/04/22 10:05:40;;;;;;;20.00;18.02;;;;;;;14.76;50.58;95614.44;5009903;28;20814;-66
2021/04/22 10:08:10;;;;;;;20.23;18.33;;;;;;;15.43;48.39;95612.94;5011644;28;20076;-65
2021/04/22 10:10:37;;;;;;;20.02;17.98;;;;;;;14.35;51.62;95617.63;5009488;28;20546;-64
2021/04/22 10:13:05;;;;;;;19.67;17.88;;;;;;;15.31;49.26;95600.22;5009546;28;20045;-66
2021/04/22 10:15:32;;;;;;;18.90;16.98;;;;;;;13.11;53.74;95628.66;5009648;28;20030;-64
2021/04/22 10:17:59;;;;;;;20.42;18.30;;;;;;;14.35;51.91;95619.50;5009132;28;20042;-63
2021/04/22 10:20:26;;;;;;;20.05;18.05;;;;;;;13.86;52.84;95619.63;5009100;28;20025;-63
2021/04/22 10:22:53;;;;;;;21.02;19.13;;;;;;;12.94;55.02;95608.78;5011494;28;20091;-64
2021/04/22 10:25:22;;;;;;;21.95;19.45;;;;;;;14.40;52.84;95614.78;5009688;28;20042;-63
2021/04/22 10:27:48;;;;;;;22.00;19.77;;;;;;;14.25;50.71;95632.09;5009104;28;20034;-64
2021/04/22 10:30:17;;;;;;;22.65;20.40;;;;;;;14.19;51.41;95624.53;5009615;28;20033;-64
2021/04/22 10:32:43;;;;;;;44.90;27.40;;;;;;;14.30;52.68;95594.47;5009561;28;20041;-62
2021/04/22 10:35:13;;;;;;;27.55;22.63;;;;;;;14.24;52.71;95622.50;5011531;28;20030;-64
2021/04/22 10:37:40;;;;;;;30.55;22.83;;;;;;;15.79;48.65;95619.72;5008486;28;20041;-63
2021/04/22 10:40:08;;;;;;;25.75;20.13;;;;;;;16.39;46.53;95583.59;5009962;28;20431;-63
2021/04/22 10:42:36;;;;;;;20.70;18.55;;;;;;;14.79;49.17;95623.72;5009537;28;20026;-65
2021/04/22 10:45:10;;;;;;;20.85;18.65;;;;;;;13.23;53.12;95621.66;5009705;28;20057;-68
2021/04/22 10:47:36;;;;;;;22.63;19.83;;;;;;;14.11;52.68;95630.66;5009443;28;20034;-60
2021/04/22 10:50:06;;;;;;;21.77;19.38;;;;;;;14.02;51.97;95626.13;5009582;28;20121;-64
2021/04/22 10:52:32;;;;;;;22.55;20.55;;;;;;;14.53;50.71;95629.09;5008721;28;20491;-63
2021/04/22 10:54:57;;;;;;;22.55;20.33;;;;;;;15.31;49.48;95626.25;5008366;28;20046;-63
2021/04/22 10:57:23;;;;;;;22.17;20.10;;;;;;;15.45;47.96;95588.47;5022466;28;20049;-63
2021/04/22 11:00:01;;;;;;;22.00;19.70;;;;;;;14.83;49.82;95624.66;5007529;28;20129;-62
2021/04/22 11:02:26;;;;;;;21.83;19.95;;;;;;;14.26;50.27;95614.16;5009258;28;20048;-61
2021/04/22 11:04:52;;;;;;;20.92;18.80;;;;;;;13.92;50.40;95599.69;5026442;28;20122;-59
2021/04/22 11:07:26;;;;;;;20.85;18.73;;;;;;;14.15;49.94;95596.84;5024113;28;20030;-59
2021/04/22 11:09:55;;;;;;;22.08;20.02;;;;;;;15.11;48.16;95605.53;5011188;28;20038;-68
2021/04/22 11:12:30;;;;;;;24.08;20.70;;;;;;;13.79;51.60;95585.34;5013036;28;20380;-67
2021/04/22 11:14:57;;;;;;;22.38;19.92;;;;;;;13.36;52.11;95595.13;5013109;28;20033;-60
2021/04/22 11:17:36;;;;;;;26.00;21.50;;;;;;;14.19;51.56;95613.84;5012945;28;20030;-60
2021/04/22 11:20:17;;;;;;;22.65;20.65;;;;;;;13.96;51.86;95616.66;5014324;28;20115;-61